Albion, New York
Current Conditions -  °F | °C
As of 6:54 AM on Thursday 29 Jan 2015 (Local Time) from KROC Reporting Station
Overcast Overcast  
Wind Chill: 11°   Ceiling: 11000
Heat Index: 11°   Visibility: 10mi
Dew Point:   Wind: 3mph
Humidity: 67%   Direction: 200°SSW
Pressure: 30.14"   Gusts: NA
Location:  43.25°N, 78.19°W
Report Text: KROC 291154Z 20003KT 10SM BKN110 OVC200 M12/M17 A3014 RMK AO2 SLP222 BINOVC 4/002 T11171167 11117 21167 58035
Loading
Personal Weather Stations






























Interactive Weather Map New forecast layout! Learn more

10-Day Weather Forecast

Advertisements
Track Severe Weather on mobile